sensor_id;sensor_type;location;lat;lon;timestamp;temperature;humidity
7212;DHT22;3647;48.792;9.802;2023-03-26T08:22:16;7.90;99.90
7212;DHT22;3647;48.792;9.802;2023-03-26T08:25:01;8.00;99.90
7212;DHT22;3647;48.792;9.802;2023-03-26T08:27:35;7.90;99.90
7212;DHT22;3647;48.792;9.802;2023-03-26T08:30:08;8.00;99.90
7212;DHT22;3647;48.792;9.802;2023-03-26T08:32:36;8.00;99.90
7212;DHT22;3647;48.792;9.802;2023-03-26T08:35:04;8.00;99.90
7212;DHT22;3647;48.792;9.802;2023-03-26T08:37:32;8.00;99.90
7212;DHT22;3647;48.792;9.802;2023-03-26T08:39:59;7.90;99.90
7212;DHT22;3647;48.792;9.802;2023-03-26T08:43:03;7.90;99.90
7212;DHT22;3647;48.792;9.802;2023-03-26T08:45:46;7.90;99.90
7212;DHT22;3647;48.792;9.802;2023-03-26T08:54:53;7.80;99.90
7212;DHT22;3647;48.792;9.802;2023-03-26T08:58:16;7.80;99.90
7212;DHT22;3647;48.792;9.802;2023-03-26T09:07:27;7.80;99.90
7212;DHT22;3647;48.792;9.802;2023-03-26T09:10:35;7.80;99.90
7212;DHT22;3647;48.792;9.802;2023-03-26T09:13:48;7.90;99.90
7212;DHT22;3647;48.792;9.802;2023-03-26T09:16:30;7.90;99.90
7212;DHT22;3647;48.792;9.802;2023-03-26T09:19:19;8.00;99.90
7212;DHT22;3647;48.792;9.802;2023-03-26T09:33:54;8.60;99.90
7212;DHT22;3647;48.792;9.802;2023-03-26T09:36:41;8.70;99.90
7212;DHT22;3647;48.792;9.802;2023-03-26T09:39:19;8.90;99.90
7212;DHT22;3647;48.792;9.802;2023-03-26T09:42:00;9.10;99.90
7212;DHT22;3647;48.792;9.802;2023-03-26T09:50:37;9.80;99.90
7212;DHT22;3647;48.792;9.802;2023-03-26T09:53:24;10.00;99.90
7212;DHT22;3647;48.792;9.802;2023-03-26T09:56:01;10.10;99.90
7212;DHT22;3647;48.792;9.802;2023-03-26T09:58:45;10.30;99.90
7212;DHT22;3647;48.792;9.802;2023-03-26T10:01:23;10.50;99.90
7212;DHT22;3647;48.792;9.802;2023-03-26T10:04:05;10.50;99.90
7212;DHT22;3647;48.792;9.802;2023-03-26T10:06:52;11.00;99.90
7212;DHT22;3647;48.792;9.802;2023-03-26T10:09:41;11.20;99.90
7212;DHT22;3647;48.792;9.802;2023-03-26T10:12:26;11.50;99.90
7212;DHT22;3647;48.792;9.802;2023-03-26T10:15:04;11.90;99.90
7212;DHT22;3647;48.792;9.802;2023-03-26T10:17:55;12.20;99.90
7212;DHT22;3647;48.792;9.802;2023-03-26T10:20:32;12.50;99.90
7212;DHT22;3647;48.792;9.802;2023-03-26T10:23:19;12.80;99.90
7212;DHT22;3647;48.792;9.802;2023-03-26T10:26:07;13.00;99.90
7212;DHT22;3647;48.792;9.802;2023-03-26T10:29:02;13.40;99.90
7212;DHT22;3647;48.792;9.802;2023-03-26T10:31:41;13.50;99.90
7212;DHT22;3647;48.792;9.802;2023-03-26T10:34:18;13.30;99.90
7212;DHT22;3647;48.792;9.802;2023-03-26T10:36:50;13.40;99.90
7212;DHT22;3647;48.792;9.802;2023-03-26T10:39:38;13.50;99.90
7212;DHT22;3647;48.792;9.802;2023-03-26T10:42:30;13.60;99.90
7212;DHT22;3647;48.792;9.802;2023-03-26T10:45:25;13.50;99.90
7212;DHT22;3647;48.792;9.802;2023-03-26T10:48:16;13.40;99.90
7212;DHT22;3647;48.792;9.802;2023-03-26T10:51:02;13.20;99.90
7212;DHT22;3647;48.792;9.802;2023-03-26T10:53:35;13.10;99.90
7212;DHT22;3647;48.792;9.802;2023-03-26T10:56:08;13.10;99.90
7212;DHT22;3647;48.792;9.802;2023-03-26T10:58:38;13.20;99.90
7212;DHT22;3647;48.792;9.802;2023-03-26T11:01:10;13.50;99.90
7212;DHT22;3647;48.792;9.802;2023-03-26T11:03:49;13.60;99.90
7212;DHT22;3647;48.792;9.802;2023-03-26T11:06:30;13.90;99.90
7212;DHT22;3647;48.792;9.802;2023-03-26T11:09:05;14.20;99.90
7212;DHT22;3647;48.792;9.802;2023-03-26T11:11:41;14.50;99.90
7212;DHT22;3647;48.792;9.802;2023-03-26T11:14:14;14.50;99.90
7212;DHT22;3647;48.792;9.802;2023-03-26T11:16:56;14.60;99.90
7212;DHT22;3647;48.792;9.802;2023-03-26T11:19:29;14.80;99.90
7212;DHT22;3647;48.792;9.802;2023-03-26T11:22:04;15.10;99.90
7212;DHT22;3647;48.792;9.802;2023-03-26T11:24:55;15.10;99.90
7212;DHT22;3647;48.792;9.802;2023-03-26T11:27:30;15.30;99.90
7212;DHT22;3647;48.792;9.802;2023-03-26T11:30:15;15.30;99.90
7212;DHT22;3647;48.792;9.802;2023-03-26T11:32:46;14.90;99.90
7212;DHT22;3647;48.792;9.802;2023-03-26T11:35:17;14.60;99.90
7212;DHT22;3647;48.792;9.802;2023-03-26T11:37:50;14.40;99.90
7212;DHT22;3647;48.792;9.802;2023-03-26T11:40:22;14.30;99.90
7212;DHT22;3647;48.792;9.802;2023-03-26T11:42:53;14.30;99.90
7212;DHT22;3647;48.792;9.802;2023-03-26T11:45:24;14.30;99.90
7212;DHT22;3647;48.792;9.802;2023-03-26T11:47:56;14.40;99.90
7212;DHT22;3647;48.792;9.802;2023-03-26T11:50:26;14.80;99.90
7212;DHT22;3647;48.792;9.802;2023-03-26T11:52:58;15.00;99.90
7212;DHT22;3647;48.792;9.802;2023-03-26T11:55:27;15.30;99.90
7212;DHT22;3647;48.792;9.802;2023-03-26T11:57:57;15.40;99.90
7212;DHT22;3647;48.792;9.802;2023-03-26T12:00:26;15.50;99.90
7212;DHT22;3647;48.792;9.802;2023-03-26T12:02:56;15.60;99.90
7212;DHT22;3647;48.792;9.802;2023-03-26T12:05:24;15.50;99.90
7212;DHT22;3647;48.792;9.802;2023-03-26T12:07:53;15.60;99.90
7212;DHT22;3647;48.792;9.802;2023-03-26T12:10:25;15.40;99.90
7212;DHT22;3647;48.792;9.802;2023-03-26T12:12:55;15.30;99.90
7212;DHT22;3647;48.792;9.802;2023-03-26T12:15:23;15.10;99.90
7212;DHT22;3647;48.792;9.802;2023-03-26T12:17:52;14.90;99.90
7212;DHT22;3647;48.792;9.802;2023-03-26T12:20:32;14.70;99.90
7212;DHT22;3647;48.792;9.802;2023-03-26T12:23:03;14.60;99.90
7212;DHT22;3647;48.792;9.802;2023-03-26T12:25:33;14.40;99.90
7212;DHT22;3647;48.792;9.802;2023-03-26T12:28:02;14.20;99.90
7212;DHT22;3647;48.792;9.802;2023-03-26T12:30:31;14.10;99.90
7212;DHT22;3647;48.792;9.802;2023-03-26T12:33:01;14.10;99.90
7212;DHT22;3647;48.792;9.802;2023-03-26T12:35:31;14.20;99.90
7212;DHT22;3647;48.792;9.802;2023-03-26T12:38:15;14.30;99.90
7212;DHT22;3647;48.792;9.802;2023-03-26T12:40:44;14.30;99.90
7212;DHT22;3647;48.792;9.802;2023-03-26T12:43:22;14.30;99.90
7212;DHT22;3647;48.792;9.802;2023-03-26T12:45:54;14.30;99.90
7212;DHT22;3647;48.792;9.802;2023-03-26T12:48:23;14.40;99.90
7212;DHT22;3647;48.792;9.802;2023-03-26T14:39:57;13.40;99.90
7212;DHT22;3647;48.792;9.802;2023-03-26T14:42:35;13.40;99.90
7212;DHT22;3647;48.792;9.802;2023-03-26T14:45:23;14.30;99.90
7212;DHT22;3647;48.792;9.802;2023-03-26T14:48:08;13.40;99.90
7212;DHT22;3647;48.792;9.802;2023-03-26T14:50:52;13.60;99.90
7212;DHT22;3647;48.792;9.802;2023-03-26T14:53:30;13.30;99.90
7212;DHT22;3647;48.792;9.802;2023-03-26T15:02:53;13.00;99.90
7212;DHT22;3647;48.792;9.802;2023-03-26T15:05:46;12.90;99.90
7212;DHT22;3647;48.792;9.802;2023-03-26T15:11:33;12.80;99.90
7212;DHT22;3647;48.792;9.802;2023-03-26T15:14:35;12.70;99.90
7212;DHT22;3647;48.792;9.802;2023-03-26T15:20:48;12.70;99.90
7212;DHT22;3647;48.792;9.802;2023-03-26T15:30:29;12.30;99.90
7212;DHT22;3647;48.792;9.802;2023-03-26T15:33:59;11.60;99.90
7212;DHT22;3647;48.792;9.802;2023-03-26T15:37:02;10.80;99.90
7212;DHT22;3647;48.792;9.802;2023-03-26T15:42:46;10.10;99.90
7212;DHT22;3647;48.792;9.802;2023-03-26T15:45:20;9.80;99.90
7212;DHT22;3647;48.792;9.802;2023-03-26T15:48:21;9.80;99.90
7212;DHT22;3647;48.792;9.802;2023-03-26T15:51:01;9.70;99.90
7212;DHT22;3647;48.792;9.802;2023-03-26T15:53:35;9.70;99.90
7212;DHT22;3647;48.792;9.802;2023-03-26T15:56:18;9.80;99.90
7212;DHT22;3647;48.792;9.802;2023-03-26T15:58:53;9.80;99.90
7212;DHT22;3647;48.792;9.802;2023-03-26T16:01:33;9.90;99.90
7212;DHT22;3647;48.792;9.802;2023-03-26T16:04:13;9.90;99.90
7212;DHT22;3647;48.792;9.802;2023-03-26T16:06:48;9.90;99.90
7212;DHT22;3647;48.792;9.802;2023-03-26T16:09:29;10.00;99.90
7212;DHT22;3647;48.792;9.802;2023-03-26T16:12:03;10.00;99.90
7212;DHT22;3647;48.792;9.802;2023-03-26T16:15:23;10.00;99.90
7212;DHT22;3647;48.792;9.802;2023-03-26T16:18:27;10.10;99.90
7212;DHT22;3647;48.792;9.802;2023-03-26T16:24:29;10.00;99.90
7212;DHT22;3647;48.792;9.802;2023-03-26T16:30:26;10.00;99.90
7212;DHT22;3647;48.792;9.802;2023-03-26T16:32:56;9.90;99.90
7212;DHT22;3647;48.792;9.802;2023-03-26T16:35:45;9.80;99.90
7212;DHT22;3647;48.792;9.802;2023-03-26T16:38:22;9.80;99.90
7212;DHT22;3647;48.792;9.802;2023-03-26T16:41:01;9.60;99.90
7212;DHT22;3647;48.792;9.802;2023-03-26T16:44:01;9.60;99.90
7212;DHT22;3647;48.792;9.802;2023-03-26T16:46:48;9.50;99.90
7212;DHT22;3647;48.792;9.802;2023-03-26T16:49:29;9.40;99.90
7212;DHT22;3647;48.792;9.802;2023-03-26T16:52:05;9.30;99.90
7212;DHT22;3647;48.792;9.802;2023-03-26T16:54:42;9.30;99.90
7212;DHT22;3647;48.792;9.802;2023-03-26T16:57:22;9.20;99.90
7212;DHT22;3647;48.792;9.802;2023-03-26T17:00:21;9.30;99.90
7212;DHT22;3647;48.792;9.802;2023-03-26T17:03:00;9.30;99.90
7212;DHT22;3647;48.792;9.802;2023-03-26T17:05:35;9.30;99.90
7212;DHT22;3647;48.792;9.802;2023-03-26T17:08:10;9.20;99.90
7212;DHT22;3647;48.792;9.802;2023-03-26T17:10:45;9.20;99.90
7212;DHT22;3647;48.792;9.802;2023-03-26T17:13:21;9.10;99.90
7212;DHT22;3647;48.792;9.802;2023-03-26T17:15:58;9.10;99.90
7212;DHT22;3647;48.792;9.802;2023-03-26T17:18:34;9.00;99.90
7212;DHT22;3647;48.792;9.802;2023-03-26T17:21:10;8.90;99.90
7212;DHT22;3647;48.792;9.802;2023-03-26T17:24:02;8.70;99.90
7212;DHT22;3647;48.792;9.802;2023-03-26T17:26:40;8.70;99.90
7212;DHT22;3647;48.792;9.802;2023-03-26T17:29:24;8.60;99.90
7212;DHT22;3647;48.792;9.802;2023-03-26T17:31:59;8.50;99.90
7212;DHT22;3647;48.792;9.802;2023-03-26T17:34:39;8.60;99.90
7212;DHT22;3647;48.792;9.802;2023-03-26T17:40:45;8.50;99.90
7212;DHT22;3647;48.792;9.802;2023-03-26T17:43:33;8.40;99.90
7212;DHT22;3647;48.792;9.802;2023-03-26T17:46:03;8.30;99.90
7212;DHT22;3647;48.792;9.802;2023-03-26T17:48:35;8.20;99.90
7212;DHT22;3647;48.792;9.802;2023-03-26T17:51:15;8.20;99.90
7212;DHT22;3647;48.792;9.802;2023-03-26T17:53:44;8.10;99.90
7212;DHT22;3647;48.792;9.802;2023-03-26T17:56:15;8.10;99.90
7212;DHT22;3647;48.792;9.802;2023-03-26T17:58:45;8.10;99.90
7212;DHT22;3647;48.792;9.802;2023-03-26T18:01:21;8.00;99.90
7212;DHT22;3647;48.792;9.802;2023-03-26T18:03:49;8.30;99.90
7212;DHT22;3647;48.792;9.802;2023-03-26T18:06:33;8.00;99.90
7212;DHT22;3647;48.792;9.802;2023-03-26T18:09:14;8.00;99.90
7212;DHT22;3647;48.792;9.802;2023-03-26T18:15:12;7.90;99.90
7212;DHT22;3647;48.792;9.802;2023-03-26T18:17:45;7.90;99.90
7212;DHT22;3647;48.792;9.802;2023-03-26T18:20:19;7.90;99.90
7212;DHT22;3647;48.792;9.802;2023-03-26T18:22:49;7.90;99.90
7212;DHT22;3647;48.792;9.802;2023-03-26T18:25:23;8.40;99.90
7212;DHT22;3647;48.792;9.802;2023-03-26T18:27:50;7.80;99.90
7212;DHT22;3647;48.792;9.802;2023-03-26T18:30:19;7.70;99.90
7212;DHT22;3647;48.792;9.802;2023-03-26T18:32:50;7.80;99.90
7212;DHT22;3647;48.792;9.802;2023-03-26T18:35:23;7.80;99.90
7212;DHT22;3647;48.792;9.802;2023-03-26T18:37:54;7.80;99.90
7212;DHT22;3647;48.792;9.802;2023-03-26T18:40:30;7.80;99.90
7212;DHT22;3647;48.792;9.802;2023-03-26T18:42:58;7.80;99.90
7212;DHT22;3647;48.792;9.802;2023-03-26T18:45:27;7.80;99.90
7212;DHT22;3647;48.792;9.802;2023-03-26T18:47:56;8.10;99.90
7212;DHT22;3647;48.792;9.802;2023-03-26T18:50:26;8.10;99.90
7212;DHT22;3647;48.792;9.802;2023-03-26T18:52:57;7.80;99.90
7212;DHT22;3647;48.792;9.802;2023-03-26T18:55:26;7.80;99.90
7212;DHT22;3647;48.792;9.802;2023-03-26T18:57:53;7.80;99.90
7212;DHT22;3647;48.792;9.802;2023-03-26T19:00:22;7.80;99.90
7212;DHT22;3647;48.792;9.802;2023-03-26T19:02:53;7.80;99.90
7212;DHT22;3647;48.792;9.802;2023-03-26T19:05:22;7.80;99.90
7212;DHT22;3647;48.792;9.802;2023-03-26T19:07:53;7.70;99.90
7212;DHT22;3647;48.792;9.802;2023-03-26T19:10:22;8.10;99.90
7212;DHT22;3647;48.792;9.802;2023-03-26T19:12:56;8.10;99.90
7212;DHT22;3647;48.792;9.802;2023-03-26T19:15:24;7.70;99.90
7212;DHT22;3647;48.792;9.802;2023-03-26T19:17:54;7.70;99.90
7212;DHT22;3647;48.792;9.802;2023-03-26T19:20:25;7.70;99.90
7212;DHT22;3647;48.792;9.802;2023-03-26T19:22:53;7.60;99.90
7212;DHT22;3647;48.792;9.802;2023-03-26T19:25:27;8.10;99.90
7212;DHT22;3647;48.792;9.802;2023-03-26T19:27:55;7.60;99.90
7212;DHT22;3647;48.792;9.802;2023-03-26T19:30:27;7.70;99.90
7212;DHT22;3647;48.792;9.802;2023-03-26T19:32:59;7.60;99.90
7212;DHT22;3647;48.792;9.802;2023-03-26T19:35:27;7.60;99.90
7212;DHT22;3647;48.792;9.802;2023-03-26T19:38:11;7.50;99.90
7212;DHT22;3647;48.792;9.802;2023-03-26T19:40:40;7.40;99.90
7212;DHT22;3647;48.792;9.802;2023-03-26T19:43:10;7.50;99.90
7212;DHT22;3647;48.792;9.802;2023-03-26T19:45:38;7.40;99.90
7212;DHT22;3647;48.792;9.802;2023-03-26T19:48:06;7.40;99.90
7212;DHT22;3647;48.792;9.802;2023-03-26T19:50:35;7.40;99.90
7212;DHT22;3647;48.792;9.802;2023-03-26T19:53:12;7.30;99.90
7212;DHT22;3647;48.792;9.802;2023-03-26T19:55:51;7.30;99.90
7212;DHT22;3647;48.792;9.802;2023-03-26T19:58:18;7.40;99.90
7212;DHT22;3647;48.792;9.802;2023-03-26T20:00:45;7.20;99.90
7212;DHT22;3647;48.792;9.802;2023-03-26T20:03:12;7.30;99.90
7212;DHT22;3647;48.792;9.802;2023-03-26T20:05:41;7.40;99.90
7212;DHT22;3647;48.792;9.802;2023-03-26T20:08:12;7.30;99.90
7212;DHT22;3647;48.792;9.802;2023-03-26T20:10:39;7.30;99.90
7212;DHT22;3647;48.792;9.802;2023-03-26T20:13:12;7.30;99.90
7212;DHT22;3647;48.792;9.802;2023-03-26T20:15:41;7.30;99.90
7212;DHT22;3647;48.792;9.802;2023-03-26T20:18:08;7.40;99.90
7212;DHT22;3647;48.792;9.802;2023-03-26T20:20:37;7.40;99.90
7212;DHT22;3647;48.792;9.802;2023-03-26T20:23:10;7.30;99.90
7212;DHT22;3647;48.792;9.802;2023-03-26T20:25:44;7.30;99.90
7212;DHT22;3647;48.792;9.802;2023-03-26T20:28:15;7.30;99.90
7212;DHT22;3647;48.792;9.802;2023-03-26T20:30:44;7.30;99.90
7212;DHT22;3647;48.792;9.802;2023-03-26T20:33:15;7.30;99.90
7212;DHT22;3647;48.792;9.802;2023-03-26T20:35:43;7.30;99.90
7212;DHT22;3647;48.792;9.802;2023-03-26T20:38:10;7.40;99.90
7212;DHT22;3647;48.792;9.802;2023-03-26T20:40:37;7.30;99.90
7212;DHT22;3647;48.792;9.802;2023-03-26T20:43:08;7.20;99.90
7212;DHT22;3647;48.792;9.802;2023-03-26T20:45:37;7.30;99.90
7212;DHT22;3647;48.792;9.802;2023-03-26T20:48:04;7.30;99.90
7212;DHT22;3647;48.792;9.802;2023-03-26T20:50:31;7.20;99.90
7212;DHT22;3647;48.792;9.802;2023-03-26T20:52:58;7.30;99.90
7212;DHT22;3647;48.792;9.802;2023-03-26T20:55:27;7.20;99.90
7212;DHT22;3647;48.792;9.802;2023-03-26T20:57:54;7.40;99.90
7212;DHT22;3647;48.792;9.802;2023-03-26T21:00:21;7.20;99.90
7212;DHT22;3647;48.792;9.802;2023-03-26T21:02:51;7.30;99.90
7212;DHT22;3647;48.792;9.802;2023-03-26T21:05:19;7.30;99.90
7212;DHT22;3647;48.792;9.802;2023-03-26T21:07:49;7.30;99.90
7212;DHT22;3647;48.792;9.802;2023-03-26T21:10:17;7.20;99.90
7212;DHT22;3647;48.792;9.802;2023-03-26T21:12:49;7.20;99.90
7212;DHT22;3647;48.792;9.802;2023-03-26T21:15:19;7.20;99.90
7212;DHT22;3647;48.792;9.802;2023-03-26T21:17:47;7.20;99.90
7212;DHT22;3647;48.792;9.802;2023-03-26T21:20:16;7.20;99.90
7212;DHT22;3647;48.792;9.802;2023-03-26T21:22:51;7.10;99.90
7212;DHT22;3647;48.792;9.802;2023-03-26T21:25:25;7.10;99.90
7212;DHT22;3647;48.792;9.802;2023-03-26T21:28:10;7.10;99.90
7212;DHT22;3647;48.792;9.802;2023-03-26T21:30:41;7.10;99.90
7212;DHT22;3647;48.792;9.802;2023-03-26T21:33:08;7.10;99.90
7212;DHT22;3647;48.792;9.802;2023-03-26T21:35:37;7.10;99.90
7212;DHT22;3647;48.792;9.802;2023-03-26T21:38:04;7.20;99.90
7212;DHT22;3647;48.792;9.802;2023-03-26T21:40:31;7.10;99.90
7212;DHT22;3647;48.792;9.802;2023-03-26T21:42:59;7.20;99.90
7212;DHT22;3647;48.792;9.802;2023-03-26T21:45:26;7.10;99.90
7212;DHT22;3647;48.792;9.802;2023-03-26T21:47:54;7.20;99.90
7212;DHT22;3647;48.792;9.802;2023-03-26T21:50:22;7.10;99.90
7212;DHT22;3647;48.792;9.802;2023-03-26T21:52:51;7.10;99.90
